sensor_id;sensor_type;location;lat;lon;timestamp;pressure;altitude;pressure_sealevel;temperature;humidity
59859;BME280;45734;53.648;9.566;2023-04-06T00:03:13;98338.03;;;-145.06;100.00
59859;BME280;45734;53.648;9.566;2023-04-06T00:08:14;98364.66;;;-145.06;100.00
59859;BME280;45734;53.648;9.566;2023-04-06T00:13:14;98335.97;;;-145.06;100.00
59859;BME280;45734;53.648;9.566;2023-04-06T00:18:15;98331.88;;;-145.06;100.00
59859;BME280;45734;53.648;9.566;2023-04-06T00:23:16;98370.78;;;-145.06;100.00
59859;BME280;45734;53.648;9.566;2023-04-06T00:28:16;98342.13;;;-145.06;100.00
59859;BME280;45734;53.648;9.566;2023-04-06T00:33:17;98352.38;;;-145.06;100.00
59859;BME280;45734;53.648;9.566;2023-04-06T00:38:17;98403.56;;;-145.06;100.00
59859;BME280;45734;53.648;9.566;2023-04-06T00:43:18;98325.75;;;-145.06;100.00
59859;BME280;45734;53.648;9.566;2023-04-06T00:48:18;98352.38;;;-145.06;100.00
59859;BME280;45734;53.648;9.566;2023-04-06T00:53:19;98295.03;;;-145.06;100.00
59859;BME280;45734;53.648;9.566;2023-04-06T00:58:19;98354.41;;;-145.06;100.00
59859;BME280;45734;53.648;9.566;2023-04-06T01:03:19;98356.47;;;-145.06;100.00
59859;BME280;45734;53.648;9.566;2023-04-06T01:08:20;98364.66;;;-145.06;100.00
59859;BME280;45734;53.648;9.566;2023-04-06T01:13:20;98327.78;;;-145.06;100.00
59859;BME280;45734;53.648;9.566;2023-04-06T01:18:27;98301.16;;;-145.06;100.00
59859;BME280;45734;53.648;9.566;2023-04-06T01:23:28;98311.41;;;-145.06;100.00
59859;BME280;45734;53.648;9.566;2023-04-06T01:28:28;98321.66;;;-145.06;100.00
59859;BME280;45734;53.648;9.566;2023-04-06T01:33:29;98323.69;;;-145.06;100.00
59859;BME280;45734;53.648;9.566;2023-04-06T01:38:29;98299.13;;;-145.06;100.00
59859;BME280;45734;53.648;9.566;2023-04-06T01:43:30;98366.69;;;-145.06;100.00
59859;BME280;45734;53.648;9.566;2023-04-06T01:48:31;98362.59;;;-145.06;100.00
59859;BME280;45734;53.648;9.566;2023-04-06T01:53:31;98327.78;;;-145.06;100.00
59859;BME280;45734;53.648;9.566;2023-04-06T01:58:32;98344.16;;;-145.06;100.00
59859;BME280;45734;53.648;9.566;2023-04-06T02:03:32;98325.75;;;-145.06;100.00
59859;BME280;45734;53.648;9.566;2023-04-06T02:08:32;98360.56;;;-145.06;100.00
59859;BME280;45734;53.648;9.566;2023-04-06T02:13:33;98372.84;;;-145.06;100.00
59859;BME280;45734;53.648;9.566;2023-04-06T02:18:33;98356.47;;;-145.06;100.00
59859;BME280;45734;53.648;9.566;2023-04-06T02:23:34;98366.69;;;-145.06;100.00
59859;BME280;45734;53.648;9.566;2023-04-06T02:28:34;98368.75;;;-145.06;100.00
59859;BME280;45734;53.648;9.566;2023-04-06T02:33:34;98360.56;;;-145.06;100.00
59859;BME280;45734;53.648;9.566;2023-04-06T02:38:35;98356.47;;;-145.06;100.00
59859;BME280;45734;53.648;9.566;2023-04-06T02:43:35;98295.03;;;-145.06;100.00
59859;BME280;45734;53.648;9.566;2023-04-06T02:48:35;98338.03;;;-145.06;100.00
59859;BME280;45734;53.648;9.566;2023-04-06T02:53:37;98335.97;;;-145.06;100.00
59859;BME280;45734;53.648;9.566;2023-04-06T02:58:37;98381.03;;;-145.06;100.00
59859;BME280;45734;53.648;9.566;2023-04-06T03:03:37;98352.38;;;-145.06;100.00
59859;BME280;45734;53.648;9.566;2023-04-06T03:08:38;98368.75;;;-145.06;100.00
59859;BME280;45734;53.648;9.566;2023-04-06T03:13:38;98352.38;;;-145.06;100.00
59859;BME280;45734;53.648;9.566;2023-04-06T03:18:38;98364.66;;;-145.06;100.00
59859;BME280;45734;53.648;9.566;2023-04-06T03:23:39;98348.28;;;-145.06;100.00
59859;BME280;45734;53.648;9.566;2023-04-06T03:28:39;98366.69;;;-145.06;100.00
59859;BME280;45734;53.648;9.566;2023-04-06T03:33:40;98356.47;;;-145.06;100.00
59859;BME280;45734;53.648;9.566;2023-04-06T03:38:40;98372.84;;;-145.06;100.00
59859;BME280;45734;53.648;9.566;2023-04-06T03:43:41;98387.19;;;-145.06;100.00
59859;BME280;45734;53.648;9.566;2023-04-06T03:48:41;98372.84;;;-145.06;100.00
59859;BME280;45734;53.648;9.566;2023-04-06T03:53:41;98331.88;;;-145.06;100.00
59859;BME280;45734;53.648;9.566;2023-04-06T03:58:42;98356.47;;;-145.06;100.00
59859;BME280;45734;53.648;9.566;2023-04-06T04:03:44;98409.69;;;-145.06;100.00
59859;BME280;45734;53.648;9.566;2023-04-06T04:08:45;98344.16;;;-145.06;100.00
59859;BME280;45734;53.648;9.566;2023-04-06T04:13:45;98360.56;;;-145.06;100.00
59859;BME280;45734;53.648;9.566;2023-04-06T04:18:45;98360.56;;;-145.06;100.00
59859;BME280;45734;53.648;9.566;2023-04-06T04:23:48;98335.97;;;-145.06;100.00
59859;BME280;45734;53.648;9.566;2023-04-06T04:28:49;98338.03;;;-145.06;100.00
59859;BME280;45734;53.648;9.566;2023-04-06T04:33:50;98292.97;;;-145.06;100.00
59859;BME280;45734;53.648;9.566;2023-04-06T04:38:51;98229.50;;;-145.06;100.00
59859;BME280;45734;53.648;9.566;2023-04-06T04:43:51;97975.59;;;-145.06;100.00
59859;BME280;45734;53.648;9.566;2023-04-06T04:48:51;96796.38;;;-145.06;100.00
59859;BME280;45734;53.648;9.566;2023-04-06T04:53:52;96391.09;;;-145.06;100.00
59859;BME280;45734;53.648;9.566;2023-04-06T04:58:52;96305.13;;;-145.06;100.00
59859;BME280;45734;53.648;9.566;2023-04-06T05:03:52;96264.19;;;-145.06;100.00
59859;BME280;45734;53.648;9.566;2023-04-06T05:08:53;96106.59;;;-145.06;100.00
59859;BME280;45734;53.648;9.566;2023-04-06T05:13:53;96382.91;;;-145.06;100.00
59859;BME280;45734;53.648;9.566;2023-04-06T05:18:54;96018.59;;;-145.06;100.00
59859;BME280;45734;53.648;9.566;2023-04-06T05:23:56;95723.91;;;-145.06;100.00
59859;BME280;45734;53.648;9.566;2023-04-06T05:28:57;95664.53;;;-145.06;100.00
59859;BME280;45734;53.648;9.566;2023-04-06T05:33:58;95427.16;;;-145.06;100.00
59859;BME280;45734;53.648;9.566;2023-04-06T05:38:58;95357.59;;;-145.06;100.00
59859;BME280;45734;53.648;9.566;2023-04-06T05:43:59;95251.19;;;-145.06;100.00
59859;BME280;45734;53.648;9.566;2023-04-06T05:48:59;95026.13;;;-145.06;97.93
59859;BME280;45734;53.648;9.566;2023-04-06T05:54:00;95011.78;;;-145.06;93.83
59859;BME280;45734;53.648;9.566;2023-04-06T05:59:00;94895.16;;;-145.06;86.73
59859;BME280;45734;53.648;9.566;2023-04-06T06:04:01;94807.19;;;-145.06;78.74
59859;BME280;45734;53.648;9.566;2023-04-06T06:09:02;94784.69;;;-145.06;77.32
59859;BME280;45734;53.648;9.566;2023-04-06T06:14:03;94788.78;;;-145.06;73.88
59859;BME280;45734;53.648;9.566;2023-04-06T06:19:04;94709.00;;;-145.06;70.83
59859;BME280;45734;53.648;9.566;2023-04-06T06:24:04;94692.63;;;-145.06;69.49
59859;BME280;45734;53.648;9.566;2023-04-06T06:29:06;94659.88;;;-145.06;64.94
59859;BME280;45734;53.648;9.566;2023-04-06T06:34:06;94557.59;;;-145.06;63.38
59859;BME280;45734;53.648;9.566;2023-04-06T06:39:07;94528.94;;;-145.06;57.54
59859;BME280;45734;53.648;9.566;2023-04-06T06:44:07;94481.91;;;-145.06;58.10
59859;BME280;45734;53.648;9.566;2023-04-06T06:49:07;94471.66;;;-145.06;53.70
59859;BME280;45734;53.648;9.566;2023-04-06T06:54:08;94432.81;;;-145.06;52.95
59859;BME280;45734;53.648;9.566;2023-04-06T06:59:08;94389.84;;;-145.06;49.02
59859;BME280;45734;53.648;9.566;2023-04-06T07:04:09;94428.72;;;-145.06;46.47
59859;BME280;45734;53.648;9.566;2023-04-06T07:09:09;94379.59;;;-145.06;46.65
59859;BME280;45734;53.648;9.566;2023-04-06T07:14:10;94324.38;;;-145.06;44.30
59859;BME280;45734;53.648;9.566;2023-04-06T07:19:11;94314.16;;;-145.06;43.28
59859;BME280;45734;53.648;9.566;2023-04-06T07:24:12;94252.78;;;-145.06;42.38
59859;BME280;45734;53.648;9.566;2023-04-06T07:29:12;94285.50;;;-145.06;42.80
59859;BME280;45734;53.648;9.566;2023-04-06T07:34:12;94256.88;;;-145.06;41.81
59859;BME280;45734;53.648;9.566;2023-04-06T07:39:13;94281.41;;;-145.06;42.44
59859;BME280;45734;53.648;9.566;2023-04-06T07:44:13;94258.91;;;-145.06;42.18
59859;BME280;45734;53.648;9.566;2023-04-06T07:49:14;94242.53;;;-145.06;39.13
59859;BME280;45734;53.648;9.566;2023-04-06T07:54:14;94287.56;;;-145.06;39.60
59859;BME280;45734;53.648;9.566;2023-04-06T07:59:15;94320.28;;;-145.06;40.12
59859;BME280;45734;53.648;9.566;2023-04-06T08:04:15;94393.94;;;-145.06;40.17
59859;BME280;45734;53.648;9.566;2023-04-06T08:09:15;94398.03;;;-145.06;38.66
59859;BME280;45734;53.648;9.566;2023-04-06T08:14:16;94471.66;;;-145.06;39.78
59859;BME280;45734;53.648;9.566;2023-04-06T08:19:16;94477.81;;;-145.06;40.03
59859;BME280;45734;53.648;9.566;2023-04-06T08:24:18;94406.19;;;-145.06;39.26
59859;BME280;45734;53.648;9.566;2023-04-06T08:29:19;94434.84;;;-145.06;37.83
59859;BME280;45734;53.648;9.566;2023-04-06T08:34:20;94430.75;;;-145.06;37.77
59859;BME280;45734;53.648;9.566;2023-04-06T08:39:21;94483.94;;;-145.06;38.71
59859;BME280;45734;53.648;9.566;2023-04-06T08:44:25;94483.94;;;-145.06;38.74
59859;BME280;45734;53.648;9.566;2023-04-06T08:49:26;94369.38;;;-145.06;35.21
59859;BME280;45734;53.648;9.566;2023-04-06T08:54:27;94461.44;;;-145.06;36.13
59859;BME280;45734;53.648;9.566;2023-04-06T08:59:28;94512.59;;;-145.06;36.16
59859;BME280;45734;53.648;9.566;2023-04-06T09:04:28;94520.78;;;-145.06;36.11
59859;BME280;45734;53.648;9.566;2023-04-06T09:09:28;94573.97;;;-145.06;36.68
59859;BME280;45734;53.648;9.566;2023-04-06T09:14:36;94641.47;;;-145.06;37.94
59859;BME280;45734;53.648;9.566;2023-04-06T09:19:47;94633.28;;;-145.06;37.56
59859;BME280;45734;53.648;9.566;2023-04-06T09:24:51;94721.25;;;-145.06;39.55
59859;BME280;45734;53.648;9.566;2023-04-06T09:30:06;94676.25;;;-145.06;37.34
59859;BME280;45734;53.648;9.566;2023-04-06T09:35:08;94702.84;;;-145.06;38.80
59859;BME280;45734;53.648;9.566;2023-04-06T09:40:09;94692.63;;;-145.06;38.16
59859;BME280;45734;53.648;9.566;2023-04-06T09:45:09;94678.31;;;-145.06;35.02
59859;BME280;45734;53.648;9.566;2023-04-06T09:50:12;94737.63;;;-145.06;38.59
59859;BME280;45734;53.648;9.566;2023-04-06T09:55:23;94663.97;;;-145.06;35.33
59859;BME280;45734;53.648;9.566;2023-04-06T10:00:26;94758.09;;;-145.06;37.26
59859;BME280;45734;53.648;9.566;2023-04-06T10:10:42;94709.00;;;-145.06;36.45
59859;BME280;45734;53.648;9.566;2023-04-06T10:15:43;94758.09;;;-145.06;37.08
59859;BME280;45734;53.648;9.566;2023-04-06T10:25:57;94839.94;;;-145.06;35.91
59859;BME280;45734;53.648;9.566;2023-04-06T10:31:00;94876.75;;;-145.06;37.21
59859;BME280;45734;53.648;9.566;2023-04-06T10:36:14;94827.66;;;-145.06;36.00
59859;BME280;45734;53.648;9.566;2023-04-06T10:41:16;94839.94;;;-145.06;35.66
59859;BME280;45734;53.648;9.566;2023-04-06T10:46:25;94821.50;;;-145.06;36.23
59859;BME280;45734;53.648;9.566;2023-04-06T10:51:27;94850.16;;;-145.06;37.66
59859;BME280;45734;53.648;9.566;2023-04-06T10:56:29;94880.84;;;-145.06;36.03
59859;BME280;45734;53.648;9.566;2023-04-06T11:01:30;94878.81;;;-145.06;35.76
59859;BME280;45734;53.648;9.566;2023-04-06T11:06:31;94852.22;;;-145.06;35.90
59859;BME280;45734;53.648;9.566;2023-04-06T11:11:32;94936.09;;;-145.06;37.25
59859;BME280;45734;53.648;9.566;2023-04-06T11:16:33;94874.72;;;-145.06;36.15
59859;BME280;45734;53.648;9.566;2023-04-06T11:21:36;94858.34;;;-145.06;35.37
59859;BME280;45734;53.648;9.566;2023-04-06T11:26:45;94923.81;;;-145.06;38.20
59859;BME280;45734;53.648;9.566;2023-04-06T11:31:50;94897.22;;;-145.06;36.87
59859;BME280;45734;53.648;9.566;2023-04-06T11:36:56;94813.34;;;-145.06;34.73
59859;BME280;45734;53.648;9.566;2023-04-06T11:42:00;94811.28;;;-145.06;34.30
59859;BME280;45734;53.648;9.566;2023-04-06T11:47:03;94860.38;;;-145.06;36.02
59859;BME280;45734;53.648;9.566;2023-04-06T11:52:24;94796.97;;;-145.06;33.57
59859;BME280;45734;53.648;9.566;2023-04-06T11:57:24;94860.38;;;-145.06;36.47
59859;BME280;45734;53.648;9.566;2023-04-06T12:02:25;94903.34;;;-145.06;36.33
59859;BME280;45734;53.648;9.566;2023-04-06T12:07:26;94909.50;;;-145.06;36.29
59859;BME280;45734;53.648;9.566;2023-04-06T12:12:26;94925.88;;;-145.06;37.55
59859;BME280;45734;53.648;9.566;2023-04-06T12:17:26;94917.69;;;-145.06;36.97
59859;BME280;45734;53.648;9.566;2023-04-06T12:22:27;94938.13;;;-145.06;38.00
59859;BME280;45734;53.648;9.566;2023-04-06T12:27:27;94899.25;;;-145.06;38.00
59859;BME280;45734;53.648;9.566;2023-04-06T12:32:27;94882.91;;;-145.06;37.65
59859;BME280;45734;53.648;9.566;2023-04-06T12:37:28;94866.53;;;-145.06;35.61
59859;BME280;45734;53.648;9.566;2023-04-06T12:42:28;94923.81;;;-145.06;37.43
59859;BME280;45734;53.648;9.566;2023-04-06T12:47:28;94909.50;;;-145.06;38.37
59859;BME280;45734;53.648;9.566;2023-04-06T12:52:29;94893.13;;;-145.06;33.46
59859;BME280;45734;53.648;9.566;2023-04-06T12:57:31;94983.16;;;-145.06;37.42
59859;BME280;45734;53.648;9.566;2023-04-06T13:02:31;94913.59;;;-145.06;36.57
59859;BME280;45734;53.648;9.566;2023-04-06T13:07:32;94921.78;;;-145.06;37.60
59859;BME280;45734;53.648;9.566;2023-04-06T13:12:32;94897.22;;;-145.06;37.24
59859;BME280;45734;53.648;9.566;2023-04-06T13:17:32;94929.94;;;-145.06;36.95
59859;BME280;45734;53.648;9.566;2023-04-06T13:22:33;94864.47;;;-145.06;34.06
59859;BME280;45734;53.648;9.566;2023-04-06T13:27:33;94870.63;;;-145.06;34.52
59859;BME280;45734;53.648;9.566;2023-04-06T13:32:35;94911.53;;;-145.06;36.29
59859;BME280;45734;53.648;9.566;2023-04-06T13:37:36;94887.00;;;-145.06;34.75
59859;BME280;45734;53.648;9.566;2023-04-06T13:42:36;94936.09;;;-145.06;35.74
59859;BME280;45734;53.648;9.566;2023-04-06T13:47:40;94938.13;;;-145.06;37.33
59859;BME280;45734;53.648;9.566;2023-04-06T13:52:40;94856.28;;;-145.06;34.40
59859;BME280;45734;53.648;9.566;2023-04-06T13:57:41;94878.81;;;-145.06;35.23
59859;BME280;45734;53.648;9.566;2023-04-06T14:02:47;94882.91;;;-145.06;34.60
59859;BME280;45734;53.648;9.566;2023-04-06T14:07:47;94884.94;;;-145.06;34.28
59859;BME280;45734;53.648;9.566;2023-04-06T14:12:48;94917.69;;;-145.06;34.89
59859;BME280;45734;53.648;9.566;2023-04-06T14:17:48;94911.53;;;-145.06;34.69
59859;BME280;45734;53.648;9.566;2023-04-06T14:22:48;94895.16;;;-145.06;34.14
59859;BME280;45734;53.648;9.566;2023-04-06T14:27:51;94938.13;;;-145.06;35.79
59859;BME280;45734;53.648;9.566;2023-04-06T14:32:51;94901.31;;;-145.06;35.30
59859;BME280;45734;53.648;9.566;2023-04-06T14:37:52;94964.75;;;-145.06;35.96
59859;BME280;45734;53.648;9.566;2023-04-06T14:42:52;95032.25;;;-145.06;36.80
59859;BME280;45734;53.648;9.566;2023-04-06T14:47:52;95005.66;;;-145.06;37.68
59859;BME280;45734;53.648;9.566;2023-04-06T14:52:52;94962.69;;;-145.06;36.00
59859;BME280;45734;53.648;9.566;2023-04-06T14:57:53;94950.41;;;-145.06;34.05
59859;BME280;45734;53.648;9.566;2023-04-06T15:02:53;95054.75;;;-145.06;35.85
59859;BME280;45734;53.648;9.566;2023-04-06T15:07:53;95052.72;;;-145.06;36.58
59859;BME280;45734;53.648;9.566;2023-04-06T15:12:53;95032.25;;;-145.06;34.71
59859;BME280;45734;53.648;9.566;2023-04-06T15:17:54;95167.31;;;-145.06;35.56
59859;BME280;45734;53.648;9.566;2023-04-06T15:22:54;95056.81;;;-145.06;34.97
59859;BME280;45734;53.648;9.566;2023-04-06T15:27:55;95085.47;;;-145.06;35.82
59859;BME280;45734;53.648;9.566;2023-04-06T15:32:58;95042.50;;;-145.06;35.82
59859;BME280;45734;53.648;9.566;2023-04-06T15:38:02;95046.56;;;-145.06;34.42
59859;BME280;45734;53.648;9.566;2023-04-06T15:43:02;95034.31;;;-145.06;33.50
59859;BME280;45734;53.648;9.566;2023-04-06T15:48:02;95126.38;;;-145.06;34.30
59859;BME280;45734;53.648;9.566;2023-04-06T15:53:03;95071.13;;;-145.06;35.37
59859;BME280;45734;53.648;9.566;2023-04-06T15:58:03;95142.75;;;-145.06;34.50
59859;BME280;45734;53.648;9.566;2023-04-06T16:03:03;95073.19;;;-145.06;34.45
59859;BME280;45734;53.648;9.566;2023-04-06T16:08:04;95408.75;;;-145.06;37.71
59859;BME280;45734;53.648;9.566;2023-04-06T16:13:06;95347.38;;;-145.06;37.08
59859;BME280;45734;53.648;9.566;2023-04-06T16:18:06;95535.63;;;-145.06;37.45
59859;BME280;45734;53.648;9.566;2023-04-06T16:23:06;95869.19;;;-145.06;38.02
59859;BME280;45734;53.648;9.566;2023-04-06T16:28:07;95922.41;;;-145.06;35.89
59859;BME280;45734;53.648;9.566;2023-04-06T16:33:08;95699.34;;;-145.06;36.92
59859;BME280;45734;53.648;9.566;2023-04-06T16:38:08;95537.66;;;-145.06;35.94
59859;BME280;45734;53.648;9.566;2023-04-06T16:43:08;95574.50;;;-145.06;35.76
59859;BME280;45734;53.648;9.566;2023-04-06T16:48:09;96030.88;;;-145.06;35.89
59859;BME280;45734;53.648;9.566;2023-04-06T16:53:09;96059.53;;;-145.06;35.85
59859;BME280;45734;53.648;9.566;2023-04-06T16:58:09;96143.44;;;-145.06;35.97
59859;BME280;45734;53.648;9.566;2023-04-06T17:03:10;96206.88;;;-145.06;36.83
59859;BME280;45734;53.648;9.566;2023-04-06T17:08:10;96196.66;;;-145.06;36.57
59859;BME280;45734;53.648;9.566;2023-04-06T17:13:10;96237.59;;;-145.06;36.45
59859;BME280;45734;53.648;9.566;2023-04-06T17:18:11;96315.34;;;-145.06;37.67
59859;BME280;45734;53.648;9.566;2023-04-06T17:23:12;96352.19;;;-145.06;38.63
59859;BME280;45734;53.648;9.566;2023-04-06T17:28:12;96366.53;;;-145.06;38.83
59859;BME280;45734;53.648;9.566;2023-04-06T17:33:12;96503.66;;;-145.06;39.11
59859;BME280;45734;53.648;9.566;2023-04-06T17:38:13;96448.41;;;-145.06;39.61
59859;BME280;45734;53.648;9.566;2023-04-06T17:43:13;96446.34;;;-145.06;40.21
59859;BME280;45734;53.648;9.566;2023-04-06T17:48:14;96518.00;;;-145.06;40.21
59859;BME280;45734;53.648;9.566;2023-04-06T17:53:14;96573.25;;;-145.06;40.98
59859;BME280;45734;53.648;9.566;2023-04-06T17:58:17;96655.13;;;-145.06;44.80
59859;BME280;45734;53.648;9.566;2023-04-06T18:03:18;96691.97;;;-145.06;45.57
59859;BME280;45734;53.648;9.566;2023-04-06T18:08:18;96747.25;;;-145.06;46.92
59859;BME280;45734;53.648;9.566;2023-04-06T18:13:18;96755.44;;;-145.06;48.19
59859;BME280;45734;53.648;9.566;2023-04-06T18:18:19;96812.75;;;-145.06;48.83
59859;BME280;45734;53.648;9.566;2023-04-06T18:23:19;96831.16;;;-145.06;50.53
59859;BME280;45734;53.648;9.566;2023-04-06T18:28:20;96818.88;;;-145.06;50.97
59859;BME280;45734;53.648;9.566;2023-04-06T18:33:20;96872.09;;;-145.06;50.98
59859;BME280;45734;53.648;9.566;2023-04-06T18:38:21;96870.06;;;-145.06;51.94
59859;BME280;45734;53.648;9.566;2023-04-06T18:43:21;96892.56;;;-145.06;52.28
59859;BME280;45734;53.648;9.566;2023-04-06T18:48:21;96884.38;;;-145.06;52.05
59859;BME280;45734;53.648;9.566;2023-04-06T18:53:22;96882.34;;;-145.06;52.43
59859;BME280;45734;53.648;9.566;2023-04-06T18:58:22;96911.00;;;-145.06;52.80
59859;BME280;45734;53.648;9.566;2023-04-06T19:03:24;96913.03;;;-145.06;52.60
59859;BME280;45734;53.648;9.566;2023-04-06T19:08:24;96915.09;;;-145.06;53.00
59859;BME280;45734;53.648;9.566;2023-04-06T19:13:25;96911.00;;;-145.06;53.38
59859;BME280;45734;53.648;9.566;2023-04-06T19:18:27;96945.81;;;-145.06;53.51
59859;BME280;45734;53.648;9.566;2023-04-06T19:23:28;96888.47;;;-145.06;53.08
59859;BME280;45734;53.648;9.566;2023-04-06T19:28:28;96939.66;;;-145.06;53.18
59859;BME280;45734;53.648;9.566;2023-04-06T19:33:28;96886.44;;;-145.06;52.56
59859;BME280;45734;53.648;9.566;2023-04-06T19:38:29;96882.34;;;-145.06;53.15
59859;BME280;45734;53.648;9.566;2023-04-06T19:43:29;96876.19;;;-145.06;53.68
59859;BME280;45734;53.648;9.566;2023-04-06T19:48:30;96966.28;;;-145.06;54.58
59859;BME280;45734;53.648;9.566;2023-04-06T19:53:32;97054.28;;;-145.06;55.16
59859;BME280;45734;53.648;9.566;2023-04-06T19:58:33;96941.69;;;-145.06;54.96
59859;BME280;45734;53.648;9.566;2023-04-06T20:03:33;96931.47;;;-145.06;54.52
59859;BME280;45734;53.648;9.566;2023-04-06T20:08:35;96972.41;;;-145.06;54.65
59859;BME280;45734;53.648;9.566;2023-04-06T20:13:36;96935.56;;;-145.06;54.43
59859;BME280;45734;53.648;9.566;2023-04-06T20:18:36;96941.69;;;-145.06;54.64
59859;BME280;45734;53.648;9.566;2023-04-06T20:23:37;96925.31;;;-145.06;55.03
59859;BME280;45734;53.648;9.566;2023-04-06T20:28:38;96958.06;;;-145.06;55.16
59859;BME280;45734;53.648;9.566;2023-04-06T20:33:39;96976.50;;;-145.06;54.51
59859;BME280;45734;53.648;9.566;2023-04-06T20:38:39;96935.56;;;-145.06;54.68
59859;BME280;45734;53.648;9.566;2023-04-06T20:43:40;96931.47;;;-145.06;53.99
59859;BME280;45734;53.648;9.566;2023-04-06T20:48:40;96939.66;;;-145.06;54.45
59859;BME280;45734;53.648;9.566;2023-04-06T20:53:40;96974.47;;;-145.06;54.68
59859;BME280;45734;53.648;9.566;2023-04-06T20:58:41;96927.38;;;-145.06;54.38
59859;BME280;45734;53.648;9.566;2023-04-06T21:03:41;96931.47;;;-145.06;54.09
59859;BME280;45734;53.648;9.566;2023-04-06T21:08:42;96921.22;;;-145.06;54.37
59859;BME280;45734;53.648;9.566;2023-04-06T21:13:42;96956.03;;;-145.06;54.46
59859;BME280;45734;53.648;9.566;2023-04-06T21:18:43;96964.22;;;-145.06;54.01
59859;BME280;45734;53.648;9.566;2023-04-06T21:23:43;96988.78;;;-145.06;54.91
59859;BME280;45734;53.648;9.566;2023-04-06T21:28:43;96941.69;;;-145.06;54.45
59859;BME280;45734;53.648;9.566;2023-04-06T21:33:44;96935.56;;;-145.06;54.60
59859;BME280;45734;53.648;9.566;2023-04-06T21:38:45;96951.94;;;-145.06;54.74
59859;BME280;45734;53.648;9.566;2023-04-06T21:43:45;96925.31;;;-145.06;54.56
59859;BME280;45734;53.648;9.566;2023-04-06T21:48:45;97019.50;;;-145.06;55.01
59859;BME280;45734;53.648;9.566;2023-04-06T21:53:46;96947.84;;;-145.06;55.06
59859;BME280;45734;53.648;9.566;2023-04-06T21:58:46;96958.06;;;-145.06;55.18
59859;BME280;45734;53.648;9.566;2023-04-06T22:03:47;96947.84;;;-145.06;55.41
59859;BME280;45734;53.648;9.566;2023-04-06T22:08:47;96947.84;;;-145.06;55.31
59859;BME280;45734;53.648;9.566;2023-04-06T22:13:48;96960.13;;;-145.06;55.21
59859;BME280;45734;53.648;9.566;2023-04-06T22:18:48;96939.66;;;-145.06;54.66
59859;BME280;45734;53.648;9.566;2023-04-06T22:23:49;96898.72;;;-145.06;54.64
59859;BME280;45734;53.648;9.566;2023-04-06T22:28:49;96962.19;;;-145.06;54.97
59859;BME280;45734;53.648;9.566;2023-04-06T22:33:50;96970.38;;;-145.06;55.02
59859;BME280;45734;53.648;9.566;2023-04-06T22:38:50;96945.81;;;-145.06;54.41
59859;BME280;45734;53.648;9.566;2023-04-06T22:43:50;96941.69;;;-145.06;55.42
59859;BME280;45734;53.648;9.566;2023-04-06T22:48:50;96960.13;;;-145.06;55.98
59859;BME280;45734;53.648;9.566;2023-04-06T22:53:55;96960.13;;;-145.06;55.19
59859;BME280;45734;53.648;9.566;2023-04-06T22:58:55;97054.28;;;-145.06;55.18
59859;BME280;45734;53.648;9.566;2023-04-06T23:03:55;96947.84;;;-145.06;55.10
59859;BME280;45734;53.648;9.566;2023-04-06T23:08:56;96968.31;;;-145.06;55.91
59859;BME280;45734;53.648;9.566;2023-04-06T23:13:56;96972.41;;;-145.06;55.40
59859;BME280;45734;53.648;9.566;2023-04-06T23:18:56;96960.13;;;-145.06;55.67
59859;BME280;45734;53.648;9.566;2023-04-06T23:23:57;96966.28;;;-145.06;55.87
59859;BME280;45734;53.648;9.566;2023-04-06T23:28:57;97001.06;;;-145.06;56.81
59859;BME280;45734;53.648;9.566;2023-04-06T23:33:57;97019.50;;;-145.06;56.31
59859;BME280;45734;53.648;9.566;2023-04-06T23:38:58;96970.38;;;-145.06;56.01
59859;BME280;45734;53.648;9.566;2023-04-06T23:43:58;96949.88;;;-145.06;56.36
59859;BME280;45734;53.648;9.566;2023-04-06T23:48:58;97019.50;;;-145.06;57.28
59859;BME280;45734;53.648;9.566;2023-04-06T23:53:58;97080.91;;;-145.06;56.81
59859;BME280;45734;53.648;9.566;2023-04-06T23:58:59;96999.03;;;-145.06;57.02
